Amsterdam — PBAD — position and weather

sailwx.info

Track history (hours):
 
Tides and Currents Weather Stations Pressure Air Temp Water Temp Dewpoint Dewpoint Depression Visibility Wind Speed Wind Dir Waves Ship Positions

Amsterdam

Operator: Holland America Line

Last reported at 2020-Jul-09 03:00 UTC. Time now 2020-Jul-09 04:49 UTC.
Position N 01°18' E 104°16'.

Type: Ship. MMSI: 244370000.

Date/timePositionNaut miles runAvg speedWind from/ knotsBaromVisibWave heightAir tempDewpointWater temp
2020-Jul-09 03:00N 01°18' E 104°16'  
2020-Jul-04 19:00N 01°30' E 105°18'143 7.9 090 / 41009.610.8 27.025.731.0
2020-Jul-04 01:00N 00°36' E 107°30'332 9.9 090 / 201010.910.8 26.525.130.0
2020-Jul-02 15:34S 04°55' E 107°51'1312.2
2020-Jul-02 14:30S 05°01' E 107°40'3311.1
2020-Jul-02 11:30S 05°18' E 107°11'611.3
2020-Jul-02 11:00S 05°20' E 107°06'611.2
2020-Jul-02 10:30S 05°23' E 107°01'1411.3
2020-Jul-02 09:13S 05°37' E 106°58'411.0
2020-Jul-02 08:53S 05°41' E 106°57'23 9.5
2020-Jul-02 06:30S 06°03' E 106°52'0 0.2
2020-Jul-02 06:10S 06°03' E 106°52'2 0.8
2020-Jul-02 04:00S 06°05' E 106°53'2204.4
2020-Jul-02 04:00S 06°03' E 106°52'3210.2
2020-Jul-02 03:59S 06°06' E 106°53'2 4.6
2020-Jul-02 03:30S 06°04' E 106°53'1114.5
2020-Jul-02 03:30S 06°03' E 106°52'0 0.3
2020-Jul-02 03:02S 06°03' E 106°52'0 0.1
2020-Jul-02 02:30S 06°03' E 106°52'059.0
2020-Jul-02 02:30S 06°03' E 106°52'3146.7
2020-Jul-02 02:29S 06°06' E 106°53'2 1.6
2020-Jul-02 01:30S 06°04' E 106°53'2504.8
2020-Jul-02 01:30S 06°03' E 106°52'320.0
2020-Jul-02 01:21S 06°06' E 106°53'3 1.7
2020-Jul-01 23:30S 06°03' E 106°52'0 0.0
2020-Jul-01 18:30S 06°03' E 106°52'0 0.0
2020-Jul-01 16:00S 06°03' E 106°52'0 0.0
2020-Jul-01 13:30S 06°03' E 106°52'0 0.0
2020-Jul-01 05:30S 06°03' E 106°52'0 0.0
2020-Jul-01 04:00S 06°03' E 106°52'0 0.0
2020-Jul-01 02:30S 06°03' E 106°52'0 0.0
2020-Jul-01 00:00S 06°03' E 106°52'0 0.0
2020-Jun-30 21:30S 06°03' E 106°52'0 0.0
2020-Jun-30 18:30S 06°03' E 106°52'0 0.0
2020-Jun-30 18:00S 06°03' E 106°52'0 0.0
2020-Jun-30 17:30S 06°03' E 106°52'0 0.0
2020-Jun-30 16:30S 06°03' E 106°52'0 0.0
2020-Jun-30 15:30S 06°03' E 106°52'0 0.0
2020-Jun-30 14:30S 06°03' E 106°52'0 0.0
2020-Jun-30 13:30S 06°03' E 106°52'8 5.6
2020-Jun-30 12:01S 05°55' E 106°55'14414.4
2020-Jun-30 02:00S 04°12' E 108°36'9713.8 130 / 281010.910.8 28.025.331.0
2020-Jun-29 19:00S 02°48' E 109°24'1313.4 120 / 291007.510.8 28.025.331.0
2020-Jun-29 18:00S 02°36' E 109°18'1313.4 120 / 281008.510.8 28.025.331.0
2020-Jun-29 17:00S 02°24' E 109°12'   120 / 311008.610.8 28.525.131.0
Track history (hours):
 
Tides and Currents Weather Stations Pressure Air Temp Water Temp Dewpoint Dewpoint Depression Visibility Wind Speed Wind Dir Waves Ship Positions

Amsterdam

Operator: Holland America Line

Last reported at 2020-Jul-09 03:00 UTC. Time now 2020-Jul-09 04:49 UTC.
Position N 01°18' E 104°16'.

Type: Ship. MMSI: 244370000.

Date/timePositionNaut miles runAvg speedWind from/ knotsBaromVisibWave heightAir tempDewpointWater temp
2020-Jul-09 03:00N 01°18' E 104°16'  
2020-Jul-04 19:00N 01°30' E 105°18'143 7.9 090 / 41009.610.8 27.025.731.0
2020-Jul-04 01:00N 00°36' E 107°30'332 9.9 090 / 201010.910.8 26.525.130.0
2020-Jul-02 15:34S 04°55' E 107°51'1312.2
2020-Jul-02 14:30S 05°01' E 107°40'3311.1
2020-Jul-02 11:30S 05°18' E 107°11'611.3
2020-Jul-02 11:00S 05°20' E 107°06'611.2
2020-Jul-02 10:30S 05°23' E 107°01'1411.3
2020-Jul-02 09:13S 05°37' E 106°58'411.0
2020-Jul-02 08:53S 05°41' E 106°57'23 9.5
2020-Jul-02 06:30S 06°03' E 106°52'0 0.2
2020-Jul-02 06:10S 06°03' E 106°52'2 0.8
2020-Jul-02 04:00S 06°05' E 106°53'2204.4
2020-Jul-02 04:00S 06°03' E 106°52'3210.2
2020-Jul-02 03:59S 06°06' E 106°53'2 4.6
2020-Jul-02 03:30S 06°04' E 106°53'1114.5
2020-Jul-02 03:30S 06°03' E 106°52'0 0.3
2020-Jul-02 03:02S 06°03' E 106°52'0 0.1
2020-Jul-02 02:30S 06°03' E 106°52'059.0
2020-Jul-02 02:30S 06°03' E 106°52'3146.7
2020-Jul-02 02:29S 06°06' E 106°53'2 1.6
2020-Jul-02 01:30S 06°04' E 106°53'2504.8
2020-Jul-02 01:30S 06°03' E 106°52'320.0
2020-Jul-02 01:21S 06°06' E 106°53'3 1.7
2020-Jul-01 23:30S 06°03' E 106°52'0 0.0
2020-Jul-01 18:30S 06°03' E 106°52'0 0.0
2020-Jul-01 16:00S 06°03' E 106°52'0 0.0
2020-Jul-01 13:30S 06°03' E 106°52'0 0.0
2020-Jul-01 05:30S 06°03' E 106°52'0 0.0
2020-Jul-01 04:00S 06°03' E 106°52'0 0.0
2020-Jul-01 02:30S 06°03' E 106°52'0 0.0
2020-Jul-01 00:00S 06°03' E 106°52'0 0.0
2020-Jun-30 21:30S 06°03' E 106°52'0 0.0
2020-Jun-30 18:30S 06°03' E 106°52'0 0.0
2020-Jun-30 18:00S 06°03' E 106°52'0 0.0
2020-Jun-30 17:30S 06°03' E 106°52'0 0.0
2020-Jun-30 16:30S 06°03' E 106°52'0 0.0
2020-Jun-30 15:30S 06°03' E 106°52'0 0.0
2020-Jun-30 14:30S 06°03' E 106°52'0 0.0
2020-Jun-30 13:30S 06°03' E 106°52'8 5.6
2020-Jun-30 12:01S 05°55' E 106°55'14414.4
2020-Jun-30 02:00S 04°12' E 108°36'9713.8 130 / 281010.910.8 28.025.331.0
2020-Jun-29 19:00S 02°48' E 109°24'1313.4 120 / 291007.510.8 28.025.331.0
2020-Jun-29 18:00S 02°36' E 109°18'1313.4 120 / 281008.510.8 28.025.331.0
2020-Jun-29 17:00S 02°24' E 109°12'   120 / 311008.610.8 28.525.131.0

Dump ship's entire track history